KAWO

Arlington Municipal Airport

Arlington, Washington, USA
METAR KAWO 191456Z AUTO 00000KT 4SM BR CLR 13/13 A3011 RMK AO2 SLP201 T01330128 52004
Observed Flight Rules
Aug-19 @ 14:56 UTC (42 minutes ago) Marginal Visual Flight Rules
Visibility Clouds Conditions
4 miles
  • Clear skies
  • Mist
Temperatures Readings
Current 13°C / 55°F
Dewpoint 13°C / 55°F
Humidity 100%
Altimeter 30.11" Hg
Pressure 1020.1 hPa
Elevation 42
METAR KAWO 191456Z AUTO 00000KT 4SM BR CLR 13/13 A3011 RMK AO2 SLP201 T01330128 52004
Observed Flight Rules
Aug-19 @ 14:56 UTC
(42 minutes ago)
MVFR
Clouds
  • Clear skies
Conditions
  • Mist
Temperature Dewpoint
13°C / 55°F 13°C / 55°F
Humidity Altimeter Pressure
100% 30.11" Hg 1020.1 hPa